createdAt,value
2022-10-26T00:01:15.751Z,8.80
2022-10-26T00:03:45.438Z,9.17
2022-10-26T00:06:19.297Z,9.50
2022-10-26T00:08:46.935Z,8.70
2022-10-26T00:11:15.191Z,8.47
2022-10-26T00:13:42.959Z,10.20
2022-10-26T00:16:19.650Z,8.17
2022-10-26T00:18:47.272Z,8.13
2022-10-26T00:21:14.477Z,8.87
2022-10-26T00:23:41.285Z,9.83
2022-10-26T00:26:08.295Z,9.07
2022-10-26T00:28:35.590Z,9.20
2022-10-26T00:31:04.124Z,8.57
2022-10-26T00:33:31.588Z,8.27
2022-10-26T00:35:58.872Z,8.30
2022-10-26T00:38:25.746Z,8.30
2022-10-26T00:40:52.593Z,9.37
2022-10-26T00:43:22.483Z,9.40
2022-10-26T00:45:51.128Z,9.30
2022-10-26T00:48:35.262Z,10.43
2022-10-26T00:51:07.668Z,9.40
2022-10-26T00:53:35.068Z,8.53
2022-10-26T00:56:02.377Z,9.33
2022-10-26T00:58:30.009Z,9.30
2022-10-26T01:00:57.164Z,10.00
2022-10-26T01:03:28.155Z,11.30
2022-10-26T01:05:57.509Z,9.73
2022-10-26T01:08:28.215Z,10.80
2022-10-26T01:10:57.307Z,12.80
2022-10-26T01:13:27.582Z,11.10
2022-10-26T01:16:06.699Z,12.83
2022-10-26T01:18:44.530Z,12.53
2022-10-26T01:21:21.840Z,13.60
2022-10-26T01:24:00.762Z,12.87
2022-10-26T01:26:27.542Z,12.83
2022-10-26T01:29:03.301Z,12.33
2022-10-26T01:31:41.194Z,12.33
2022-10-26T01:34:22.254Z,14.73
2022-10-26T01:36:58.594Z,12.00
2022-10-26T01:39:32.585Z,12.77
2022-10-26T01:42:01.579Z,12.10
2022-10-26T01:44:33.718Z,11.80
2022-10-26T01:47:02.665Z,10.20
2022-10-26T01:49:35.622Z,11.73
2022-10-26T01:52:02.498Z,11.30
2022-10-26T01:54:29.411Z,12.33
2022-10-26T01:57:02.053Z,11.97
2022-10-26T01:59:40.472Z,11.10
2022-10-26T02:02:26.782Z,10.53
2022-10-26T02:05:16.267Z,10.47
2022-10-26T02:07:58.140Z,10.87
2022-10-26T02:10:40.641Z,10.80
2022-10-26T02:13:34.771Z,10.63
2022-10-26T02:16:32.133Z,11.13
2022-10-26T02:19:21.179Z,10.20
2022-10-26T02:21:55.119Z,11.73
2022-10-26T02:24:23.432Z,11.13
2022-10-26T02:26:53.076Z,10.87
2022-10-26T02:29:21.263Z,11.80
2022-10-26T02:31:50.377Z,10.50
2022-10-26T02:34:21.966Z,11.73
2022-10-26T02:36:50.957Z,10.53
2022-10-26T02:39:19.393Z,10.93
2022-10-26T02:41:48.669Z,11.10
2022-10-26T02:44:24.681Z,11.60
2022-10-26T02:46:52.945Z,11.60
2022-10-26T02:49:20.362Z,12.17
2022-10-26T02:51:52.628Z,13.00
2022-10-26T02:54:29.705Z,12.50
2022-10-26T02:57:13.990Z,12.40
2022-10-26T02:59:43.932Z,12.37
2022-10-26T03:02:13.296Z,12.60
2022-10-26T03:04:40.087Z,12.80
2022-10-26T03:07:06.883Z,12.10
2022-10-26T03:09:33.755Z,12.47
2022-10-26T03:12:00.611Z,12.57
2022-10-26T03:14:27.402Z,12.60
2022-10-26T03:16:54.292Z,12.20
2022-10-26T03:19:21.102Z,11.53
2022-10-26T03:21:47.878Z,13.47
2022-10-26T03:24:14.694Z,11.60
2022-10-26T03:26:41.459Z,12.07
2022-10-26T03:29:09.025Z,11.33
2022-10-26T03:31:36.035Z,12.07
2022-10-26T03:34:02.861Z,13.20
2022-10-26T03:36:29.712Z,13.60
2022-10-26T03:38:56.550Z,12.57
2022-10-26T03:41:23.407Z,12.50
2022-10-26T03:43:50.246Z,11.17
2022-10-26T03:46:17.036Z,12.20
2022-10-26T03:48:43.876Z,11.53
2022-10-26T03:51:10.673Z,12.67
2022-10-26T03:53:37.684Z,14.03
2022-10-26T03:56:04.708Z,14.00
2022-10-26T03:58:31.480Z,12.87
2022-10-26T04:00:58.272Z,12.40
2022-10-26T04:03:25.091Z,14.10
2022-10-26T04:05:51.867Z,12.90
2022-10-26T04:08:18.983Z,12.87
2022-10-26T04:10:47.459Z,11.90
2022-10-26T04:13:14.312Z,12.90
2022-10-26T04:15:41.451Z,13.07
2022-10-26T04:18:09.849Z,13.67
2022-10-26T04:20:39.061Z,14.20
2022-10-26T04:23:06.933Z,13.73
2022-10-26T04:25:34.366Z,13.17
2022-10-26T04:28:02.634Z,13.90
2022-10-26T04:30:29.682Z,13.47
2022-10-26T04:32:56.721Z,11.70
2022-10-26T04:35:23.990Z,12.60
2022-10-26T04:37:50.827Z,13.53
2022-10-26T04:40:18.379Z,13.30
2022-10-26T04:42:47.135Z,12.97
2022-10-26T04:45:16.122Z,12.60
2022-10-26T04:47:43.546Z,14.97
2022-10-26T04:50:12.456Z,12.10
2022-10-26T04:52:39.965Z,12.57
2022-10-26T04:55:07.517Z,13.30
2022-10-26T04:57:35.213Z,14.80
2022-10-26T05:00:04.335Z,12.80
2022-10-26T05:02:31.219Z,13.73
2022-10-26T05:04:58.098Z,14.40
2022-10-26T05:07:25.001Z,17.13
2022-10-26T05:09:51.808Z,17.47
2022-10-26T05:12:18.716Z,13.97
2022-10-26T05:14:45.500Z,17.10
2022-10-26T05:17:12.334Z,15.63
2022-10-26T05:19:39.271Z,14.80
2022-10-26T05:22:06.246Z,15.07
2022-10-26T05:24:33.077Z,15.30
2022-10-26T05:27:00.088Z,14.97
2022-10-26T05:29:26.961Z,14.77
2022-10-26T05:31:53.754Z,16.67
2022-10-26T05:34:20.578Z,16.27
2022-10-26T05:36:47.402Z,16.53
2022-10-26T05:39:14.219Z,14.97
2022-10-26T05:41:41.069Z,17.03
2022-10-26T05:44:07.817Z,15.57
2022-10-26T05:46:34.618Z,14.10
2022-10-26T05:49:01.385Z,15.20
2022-10-26T05:51:28.147Z,14.37
2022-10-26T05:53:54.971Z,13.63
2022-10-26T05:56:35.663Z,15.27
2022-10-26T05:59:03.540Z,15.70
2022-10-26T06:01:44.178Z,15.17
2022-10-26T06:04:29.329Z,16.00
2022-10-26T06:06:57.452Z,17.30
2022-10-26T06:09:24.694Z,17.57
2022-10-26T06:11:51.819Z,17.87
2022-10-26T06:14:18.883Z,15.70
2022-10-26T06:16:45.619Z,18.43
2022-10-26T06:19:47.494Z,15.33
2022-10-26T06:22:46.675Z,16.27
2022-10-26T06:25:24.728Z,15.23
2022-10-26T06:28:18.696Z,14.80
2022-10-26T06:30:45.574Z,15.93
2022-10-26T06:33:29.168Z,14.60
2022-10-26T06:36:29.994Z,15.53
2022-10-26T06:39:07.588Z,13.30
2022-10-26T06:41:36.347Z,14.80
2022-10-26T06:44:04.765Z,13.27
2022-10-26T06:46:37.724Z,15.10
2022-10-26T06:49:38.069Z,12.53
2022-10-26T06:52:07.631Z,13.13
2022-10-26T06:54:37.120Z,14.07
2022-10-26T06:57:04.184Z,13.20
2022-10-26T06:59:38.943Z,14.57
2022-10-26T07:02:06.774Z,13.53
2022-10-26T07:04:33.890Z,11.93
2022-10-26T07:07:00.916Z,13.93
2022-10-26T07:09:27.787Z,12.27
2022-10-26T07:11:54.587Z,11.53
2022-10-26T07:14:21.409Z,11.83
2022-10-26T07:16:48.198Z,11.60
2022-10-26T07:19:15.048Z,12.00
2022-10-26T07:21:41.809Z,13.37
2022-10-26T07:24:08.903Z,11.50
2022-10-26T07:26:35.740Z,11.73
2022-10-26T07:29:02.662Z,12.50
2022-10-26T07:31:29.473Z,12.00
2022-10-26T07:33:56.327Z,11.50
2022-10-26T07:36:23.268Z,11.40
2022-10-26T07:38:54.034Z,10.57
2022-10-26T07:41:21.156Z,9.20
2022-10-26T07:43:50.803Z,10.47
2022-10-26T07:46:18.570Z,11.57
2022-10-26T07:48:45.524Z,10.90
2022-10-26T07:51:12.364Z,9.67
2022-10-26T07:53:39.177Z,10.23
2022-10-26T07:56:06.832Z,8.23
2022-10-26T07:58:33.701Z,9.90
2022-10-26T08:01:10.591Z,9.20
2022-10-26T08:03:37.847Z,8.70
2022-10-26T08:06:05.265Z,10.27
2022-10-26T08:08:32.516Z,10.07
2022-10-26T08:10:59.804Z,10.10
2022-10-26T08:13:26.886Z,9.87
2022-10-26T08:15:58.266Z,9.27
2022-10-26T08:18:25.435Z,9.43
2022-10-26T08:20:52.324Z,9.20
2022-10-26T08:23:19.116Z,9.50
2022-10-26T08:25:46.071Z,10.30
2022-10-26T08:28:14.337Z,9.30
2022-10-26T08:30:41.128Z,9.80
2022-10-26T08:33:09.961Z,10.07
2022-10-26T08:35:36.798Z,11.40
2022-10-26T08:38:03.569Z,11.20
2022-10-26T08:40:36.799Z,11.27
2022-10-26T08:43:26.409Z,10.90
2022-10-26T08:45:58.683Z,11.90
2022-10-26T08:48:33.296Z,11.17
2022-10-26T08:51:06.374Z,11.40
2022-10-26T08:53:37.218Z,10.97
2022-10-26T08:56:15.944Z,10.13
2022-10-26T08:59:07.908Z,12.00
2022-10-26T09:01:34.879Z,13.50
2022-10-26T09:04:03.545Z,13.80
2022-10-26T09:06:36.372Z,12.50
2022-10-26T09:09:12.643Z,11.40
2022-10-26T09:12:17.584Z,11.53
2022-10-26T09:15:08.803Z,11.83
2022-10-26T09:17:52.786Z,10.03
2022-10-26T09:20:43.942Z,11.67
2022-10-26T09:23:39.291Z,10.40
2022-10-26T09:26:13.385Z,8.60
2022-10-26T09:28:42.039Z,7.00
2022-10-26T09:31:15.215Z,7.17
2022-10-26T09:33:41.993Z,6.70
2022-10-26T09:36:16.018Z,7.80
2022-10-26T09:38:58.905Z,8.40
2022-10-26T09:41:37.208Z,8.63
2022-10-26T09:44:09.291Z,7.50
2022-10-26T09:46:52.647Z,8.00
2022-10-26T09:49:23.683Z,7.13
2022-10-26T09:51:51.109Z,8.60
2022-10-26T09:54:20.611Z,8.90
2022-10-26T09:56:55.726Z,8.33
2022-10-26T09:59:24.930Z,8.07
2022-10-26T10:01:51.956Z,8.73
2022-10-26T10:04:22.768Z,8.87
2022-10-26T10:07:13.020Z,7.83
2022-10-26T10:09:39.855Z,7.53
2022-10-26T10:12:18.318Z,7.80
2022-10-26T10:14:57.145Z,7.47
2022-10-26T10:17:24.863Z,7.33
2022-10-26T10:19:53.173Z,6.80
2022-10-26T10:22:24.632Z,7.20
2022-10-26T10:25:02.064Z,7.50
2022-10-26T10:27:30.571Z,7.30
2022-10-26T10:30:13.527Z,7.60
2022-10-26T10:32:41.439Z,7.13
2022-10-26T10:35:24.854Z,6.87
2022-10-26T10:37:52.580Z,7.20
2022-10-26T10:40:25.421Z,7.53
2022-10-26T10:42:55.626Z,7.73
2022-10-26T10:45:25.057Z,7.53
2022-10-26T10:48:13.448Z,8.13
2022-10-26T10:50:56.723Z,7.33
2022-10-26T10:53:34.885Z,8.53
2022-10-26T10:56:27.950Z,6.80
2022-10-26T10:59:17.534Z,7.63
2022-10-26T11:02:13.998Z,8.00
2022-10-26T11:04:59.499Z,7.80
2022-10-26T11:07:28.274Z,7.83
2022-10-26T11:09:57.326Z,8.90
2022-10-26T11:12:30.882Z,9.17
2022-10-26T11:15:03.108Z,8.60
2022-10-26T11:17:36.272Z,8.40
2022-10-26T11:20:16.921Z,9.20
2022-10-26T11:22:59.584Z,8.90
2022-10-26T11:25:31.041Z,8.50
2022-10-26T11:28:01.270Z,9.20
2022-10-26T11:30:30.799Z,9.20
2022-10-26T11:33:26.032Z,10.00
2022-10-26T11:35:59.356Z,9.20
2022-10-26T11:38:57.730Z,10.47
2022-10-26T11:41:37.274Z,11.10
2022-10-26T11:44:22.735Z,11.07
2022-10-26T11:47:15.520Z,9.60
2022-10-26T11:49:59.412Z,10.07
2022-10-26T11:52:43.481Z,9.90
2022-10-26T11:55:11.893Z,10.00
2022-10-26T11:57:39.058Z,9.30
2022-10-26T12:00:07.627Z,8.60
2022-10-26T12:05:16.617Z,7.60
2022-10-26T12:08:04.357Z,8.43
2022-10-26T12:10:35.123Z,7.73
2022-10-26T12:13:14.552Z,8.90
2022-10-26T12:16:03.534Z,9.10
2022-10-26T12:18:54.502Z,8.20
2022-10-26T12:21:28.708Z,8.77
2022-10-26T12:23:58.500Z,9.30
2022-10-26T12:26:28.123Z,9.00
2022-10-26T12:29:03.961Z,8.83
2022-10-26T12:31:36.503Z,9.97
2022-10-26T12:34:04.158Z,9.73
2022-10-26T12:36:50.581Z,9.90
2022-10-26T12:39:43.490Z,11.10
2022-10-26T12:42:10.315Z,11.87
2022-10-26T12:44:42.514Z,8.80
2022-10-26T12:47:11.119Z,9.07
2022-10-26T12:50:05.751Z,10.33
2022-10-26T12:52:51.026Z,8.40
2022-10-26T12:55:50.087Z,8.83
2022-10-26T12:58:50.398Z,7.80
2022-10-26T13:01:32.764Z,7.87
2022-10-26T13:04:08.412Z,9.47
2022-10-26T13:07:18.264Z,8.30
2022-10-26T13:09:53.970Z,8.10
2022-10-26T13:12:20.978Z,7.80
2022-10-26T13:15:07.575Z,7.50
2022-10-26T13:20:07.441Z,8.90
2022-10-26T13:22:44.629Z,9.57
2022-10-26T13:25:31.733Z,8.03
2022-10-26T13:28:03.729Z,7.90
2022-10-26T13:30:33.332Z,8.37
2022-10-26T13:33:01.616Z,7.90
2022-10-26T13:35:28.947Z,7.97
2022-10-26T13:37:57.120Z,8.10
2022-10-26T13:40:26.862Z,7.60
2022-10-26T13:43:05.536Z,6.87
2022-10-26T13:45:38.049Z,6.90
2022-10-26T13:48:12.535Z,6.03
2022-10-26T13:50:59.460Z,5.77
2022-10-26T13:54:03.328Z,8.23
2022-10-26T13:56:38.049Z,10.40
2022-10-26T13:59:13.758Z,10.87
2022-10-26T14:01:40.722Z,10.80
2022-10-26T14:04:29.232Z,10.50
2022-10-26T14:06:56.366Z,10.90
2022-10-26T14:09:23.948Z,12.10
2022-10-26T14:11:54.374Z,11.70
2022-10-26T14:14:28.036Z,11.40
2022-10-26T14:16:55.954Z,9.40
2022-10-26T14:19:31.522Z,11.03
2022-10-26T14:21:58.921Z,11.00
2022-10-26T14:24:46.653Z,11.80
2022-10-26T14:27:18.319Z,11.40
2022-10-26T14:29:54.160Z,12.20
2022-10-26T14:32:33.627Z,11.20
2022-10-26T14:35:00.513Z,10.20
2022-10-26T14:37:55.146Z,10.17
2022-10-26T14:40:28.982Z,10.90
2022-10-26T14:43:01.098Z,9.37
2022-10-26T14:45:47.701Z,9.97
2022-10-26T14:48:35.617Z,9.83
2022-10-26T14:51:17.170Z,10.30
2022-10-26T14:53:52.410Z,10.60
2022-10-26T14:56:35.915Z,8.40
2022-10-26T14:59:27.714Z,10.40
2022-10-26T15:02:17.175Z,10.00
2022-10-26T15:05:02.171Z,9.40
2022-10-26T15:07:37.529Z,9.10
2022-10-26T15:10:05.730Z,11.00
2022-10-26T15:12:37.957Z,11.20
2022-10-26T15:15:14.757Z,9.10
2022-10-26T15:17:48.464Z,9.10
2022-10-26T15:20:19.342Z,11.47
2022-10-26T15:22:53.684Z,10.57
2022-10-26T15:25:27.931Z,10.03
2022-10-26T15:27:55.210Z,10.40
2022-10-26T15:30:27.780Z,11.27
2022-10-26T15:32:55.871Z,9.33
2022-10-26T15:35:31.769Z,10.03
2022-10-26T15:38:01.135Z,8.93
2022-10-26T15:40:30.664Z,10.00
2022-10-26T15:42:59.656Z,8.97
2022-10-26T15:45:33.268Z,9.77
2022-10-26T15:48:15.709Z,10.20
2022-10-26T15:50:42.647Z,8.77
2022-10-26T15:53:18.042Z,10.03
2022-10-26T15:55:44.844Z,9.57
2022-10-26T15:58:11.755Z,9.40
2022-10-26T16:00:38.647Z,10.10
2022-10-26T16:03:05.480Z,9.40
2022-10-26T16:07:59.263Z,9.37
2022-10-26T16:10:26.170Z,10.10
2022-10-26T16:12:53.375Z,9.90
2022-10-26T16:15:25.030Z,12.30
2022-10-26T16:17:52.370Z,10.77
2022-10-26T16:20:25.201Z,10.23
2022-10-26T16:22:53.196Z,9.73
2022-10-26T16:25:24.843Z,9.40
2022-10-26T16:27:53.245Z,9.60
2022-10-26T16:30:21.033Z,9.83
2022-10-26T16:32:48.533Z,10.10
2022-10-26T16:35:16.309Z,9.37
2022-10-26T16:37:43.128Z,10.33
2022-10-26T16:40:10.414Z,9.47
2022-10-26T16:42:37.274Z,8.63
2022-10-26T16:45:04.825Z,8.50
2022-10-26T16:47:35.620Z,8.20
2022-10-26T16:50:03.732Z,8.97
2022-10-26T16:52:30.597Z,9.30
2022-10-26T16:54:57.450Z,8.73
2022-10-26T16:57:24.230Z,8.87
2022-10-26T16:59:51.127Z,8.40
2022-10-26T17:02:18.208Z,9.10
2022-10-26T17:04:45.065Z,9.07
2022-10-26T17:07:11.959Z,8.87
2022-10-26T17:09:38.987Z,9.93
2022-10-26T17:12:06.228Z,9.53
2022-10-26T17:14:33.156Z,9.77
2022-10-26T17:16:59.988Z,10.77
2022-10-26T17:19:26.899Z,9.93
2022-10-26T17:21:53.749Z,10.27
2022-10-26T17:24:21.347Z,8.90
2022-10-26T17:26:48.195Z,10.77
2022-10-26T17:29:15.145Z,9.83
2022-10-26T17:31:42.009Z,9.90
2022-10-26T17:34:08.906Z,8.77
2022-10-26T17:36:35.799Z,9.97
2022-10-26T17:39:02.706Z,10.30
2022-10-26T17:41:29.551Z,10.23
2022-10-26T17:43:56.322Z,10.87
2022-10-26T17:46:26.094Z,10.03
2022-10-26T17:48:58.094Z,9.60
2022-10-26T17:51:26.524Z,11.03
2022-10-26T17:53:54.076Z,9.57
2022-10-26T17:56:26.730Z,10.30
2022-10-26T17:59:05.429Z,9.70
2022-10-26T18:01:33.065Z,8.63
2022-10-26T18:04:00.501Z,10.77
2022-10-26T18:06:27.502Z,9.27
2022-10-26T18:08:56.690Z,9.97
2022-10-26T18:11:27.307Z,9.30
2022-10-26T18:13:58.352Z,9.87
2022-10-26T18:16:26.660Z,9.53
2022-10-26T18:19:00.684Z,9.70
2022-10-26T18:21:29.883Z,10.77
2022-10-26T18:23:56.729Z,10.05
2022-10-26T18:26:28.893Z,11.50
2022-10-26T18:28:56.615Z,11.20
2022-10-26T21:01:13.927Z,14.70
2022-10-26T21:03:41.097Z,13.20
2022-10-26T21:06:11.256Z,13.37
2022-10-26T21:08:38.171Z,15.43
2022-10-26T21:11:05.099Z,15.53
2022-10-26T21:13:31.905Z,15.80
2022-10-26T21:15:58.711Z,15.13
2022-10-26T21:18:25.453Z,14.83
2022-10-26T21:20:52.297Z,13.77
2022-10-26T21:23:19.195Z,13.90
2022-10-26T21:25:45.980Z,14.77
2022-10-26T21:28:12.744Z,14.60
2022-10-26T21:30:39.693Z,14.83
2022-10-26T21:33:06.621Z,15.53
2022-10-26T21:35:33.510Z,14.60
2022-10-26T21:38:00.386Z,16.40
2022-10-26T21:40:27.303Z,15.40
2022-10-26T21:42:54.117Z,16.73
2022-10-26T21:45:20.893Z,15.63
2022-10-26T21:47:52.292Z,16.00
2022-10-26T21:50:19.668Z,15.60
2022-10-26T21:52:46.487Z,15.80
2022-10-26T21:55:13.269Z,16.43
2022-10-26T21:57:40.346Z,17.07
2022-10-26T22:00:08.104Z,16.07
2022-10-26T22:02:35.047Z,16.73
2022-10-26T22:05:01.875Z,17.00
2022-10-26T22:07:28.634Z,14.50
2022-10-26T22:10:10.263Z,15.43
2022-10-26T22:12:37.713Z,16.40
2022-10-26T22:15:05.145Z,16.90
2022-10-26T22:17:31.901Z,16.30
2022-10-26T22:19:58.668Z,16.05
2022-10-26T22:22:25.419Z,14.63
2022-10-26T22:24:52.189Z,14.63
2022-10-26T22:27:19.031Z,16.53
2022-10-26T22:29:45.950Z,14.63
2022-10-26T22:32:12.720Z,16.50
2022-10-26T22:34:39.882Z,15.68
2022-10-26T22:37:06.670Z,17.25
2022-10-26T22:39:33.425Z,15.63
2022-10-26T22:42:00.199Z,16.30
2022-10-26T22:44:26.978Z,16.33
2022-10-26T22:46:53.845Z,16.87
2022-10-26T22:49:20.694Z,15.87
2022-10-26T22:51:47.473Z,16.77
2022-10-26T22:54:14.423Z,15.77
2022-10-26T22:56:41.411Z,16.70
2022-10-26T22:59:08.301Z,16.00
2022-10-26T23:01:41.749Z,15.00
2022-10-26T23:04:12.589Z,14.95
2022-10-26T23:06:40.061Z,16.20
2022-10-26T23:09:07.105Z,14.97
2022-10-26T23:11:34.045Z,15.65
2022-10-26T23:14:02.740Z,14.48
2022-10-26T23:16:30.703Z,16.00
2022-10-26T23:18:58.609Z,16.70
2022-10-26T23:23:52.521Z,14.97
2022-10-26T23:26:21.469Z,18.63
2022-10-26T23:28:48.916Z,18.73
2022-10-26T23:31:18.562Z,20.67
2022-10-26T23:33:45.620Z,20.35
2022-10-26T23:36:12.951Z,19.13
2022-10-26T23:38:39.712Z,21.40
2022-10-26T23:41:09.423Z,20.33
2022-10-26T23:43:38.979Z,19.30
2022-10-26T23:46:05.932Z,18.63
2022-10-26T23:48:32.945Z,20.15
2022-10-26T23:50:59.795Z,18.37
2022-10-26T23:53:26.758Z,18.57
2022-10-26T23:55:53.635Z,19.98
2022-10-26T23:58:20.546Z,20.40
